Time;durP1;ratioP1;P1;durP2;ratioP2;P2;SDS_P1;SDS_P2;PMS_P1;PMS_P2;Temp;Humidity;BMP_temperature;BMP_pressure;BME280_temperature;BME280_humidity;BME280_pressure;Samples;Min_cycle;Max_cycle;Signal;HPM_P1;HPM_P2
2023/08/04 00:00:55;;;;;;;15.47;4.03;;;;;;;-145.18;100.00;46640.88;5033495;28;20366;-66
2023/08/04 00:03:20;;;;;;;10.83;4.50;;;;;;;-145.18;100.00;46640.88;5031839;28;20047;-65
2023/08/04 00:05:46;;;;;;;13.63;3.87;;;;;;;-145.18;100.00;46636.94;5020531;28;20064;-66
2023/08/04 00:08:11;;;;;;;10.80;4.03;;;;;;;-145.18;100.00;46640.88;5032622;28;20045;-65
2023/08/04 00:10:36;;;;;;;11.63;4.50;;;;;;;-145.18;100.00;46638.91;5025612;28;20065;-65
2023/08/04 00:13:02;;;;;;;10.67;4.07;;;;;;;-145.18;100.00;46640.88;5021898;28;20401;-66
2023/08/04 00:15:28;;;;;;;9.13;4.17;;;;;;;-145.18;100.00;46638.91;5032384;28;20493;-66
2023/08/04 00:17:55;;;;;;;10.43;4.17;;;;;;;-145.18;100.00;46642.81;5031880;28;20037;-66
2023/08/04 00:20:21;;;;;;;11.57;3.83;;;;;;;-145.18;100.00;46642.81;5033975;28;20034;-66
2023/08/04 00:22:46;;;;;;;9.90;4.27;;;;;;;-145.18;100.00;46636.94;5024047;28;20616;-66
2023/08/04 00:25:12;;;;;;;10.50;4.50;;;;;;;-145.18;100.00;46640.88;5032124;28;20473;-66
2023/08/04 00:27:37;;;;;;;10.00;3.80;;;;;;;-145.18;100.00;46644.78;5031228;28;20057;-65
2023/08/04 00:30:03;;;;;;;9.50;4.00;;;;;;;-145.18;100.00;46642.81;5014403;28;20095;-66
2023/08/04 00:32:28;;;;;;;10.57;4.17;;;;;;;-145.18;100.00;46638.91;4996716;28;20034;-65
2023/08/04 00:34:53;;;;;;;13.50;4.50;;;;;;;-145.18;100.00;46642.81;5017046;28;20033;-66
2023/08/04 00:37:19;;;;;;;11.70;4.20;;;;;;;-145.18;100.00;46640.88;5030506;28;20040;-66
2023/08/04 00:39:44;;;;;;;11.97;4.70;;;;;;;-145.18;100.00;46642.81;5032007;28;20080;-66
2023/08/04 00:42:10;;;;;;;10.17;3.93;;;;;;;-145.18;100.00;46640.88;5011588;28;20041;-66
2023/08/04 00:44:36;;;;;;;7.77;3.57;;;;;;;-145.18;100.00;46640.88;5015697;28;20116;-65
2023/08/04 00:47:02;;;;;;;11.50;4.13;;;;;;;-145.18;100.00;46644.78;5030683;28;20440;-66
2023/08/04 00:49:28;;;;;;;13.77;4.00;;;;;;;-145.18;100.00;46644.78;5017005;28;20091;-66
2023/08/04 00:51:53;;;;;;;13.83;3.97;;;;;;;-145.18;100.00;46640.88;5029308;28;20389;-66
2023/08/04 00:54:19;;;;;;;6.17;3.53;;;;;;;-145.18;100.00;46646.72;5011412;28;20493;-65
2023/08/04 00:56:46;;;;;;;9.67;3.70;;;;;;;-145.18;100.00;46640.88;5013216;28;20045;-66
2023/08/04 00:59:11;;;;;;;8.77;3.97;;;;;;;-145.18;100.00;46644.78;5011950;28;20029;-66
2023/08/04 01:01:37;;;;;;;9.37;3.90;;;;;;;-145.18;100.00;46642.81;5020977;28;20029;-67
2023/08/04 01:04:03;;;;;;;7.90;4.17;;;;;;;-145.18;100.00;46640.88;5023954;28;20144;-66
2023/08/04 01:06:39;;;;;;;11.00;4.10;;;;;;;-145.18;100.00;46644.78;5017876;28;20508;-66
2023/08/04 01:09:41;;;;;;;10.20;4.47;;;;;;;-145.18;100.00;46640.88;5030580;28;20025;-66
2023/08/04 01:12:35;;;;;;;12.30;4.90;;;;;;;-145.18;100.00;46644.78;5032104;28;20110;-66
2023/08/04 01:15:03;;;;;;;7.87;4.13;;;;;;;-145.18;100.00;46640.88;5032440;28;20096;-66
2023/08/04 01:17:30;;;;;;;9.80;4.13;;;;;;;-145.18;100.00;46646.72;5032330;28;20478;-66
2023/08/04 01:19:57;;;;;;;8.83;4.33;;;;;;;-145.18;100.00;46642.81;5032215;28;20080;-66
2023/08/04 01:22:23;;;;;;;8.73;4.50;;;;;;;-145.18;100.00;46644.78;5032326;28;20473;-66
2023/08/04 01:24:51;;;;;;;10.00;4.27;;;;;;;-145.18;100.00;46644.78;5031784;28;20482;-66
2023/08/04 01:27:22;;;;;;;13.83;4.23;;;;;;;-145.18;100.00;46646.72;5032328;28;20025;-66
2023/08/04 01:29:49;;;;;;;9.60;4.10;;;;;;;-145.18;100.00;46644.78;5032229;28;20047;-66
2023/08/04 01:32:14;;;;;;;9.17;3.73;;;;;;;-145.18;100.00;46642.81;5031843;28;20540;-66
2023/08/04 01:34:41;;;;;;;6.70;3.00;;;;;;;-145.18;100.00;46640.88;5032536;28;20030;-66
2023/08/04 01:37:08;;;;;;;7.73;3.70;;;;;;;-145.18;100.00;46646.72;5032306;28;20112;-66
2023/08/04 01:39:33;;;;;;;11.80;3.93;;;;;;;-145.18;100.00;46642.81;5032374;28;20029;-66
2023/08/04 01:41:59;;;;;;;8.63;3.70;;;;;;;-145.18;100.00;46644.78;5031884;28;20029;-66
2023/08/04 01:44:24;;;;;;;11.23;3.97;;;;;;;-145.18;100.00;46642.81;5032165;28;20033;-66
2023/08/04 01:46:49;;;;;;;13.33;4.33;;;;;;;-145.18;100.00;46638.91;5030235;28;20022;-66
2023/08/04 01:49:15;;;;;;;8.17;3.90;;;;;;;-145.18;100.00;46644.78;5032344;28;20072;-66
2023/08/04 01:51:41;;;;;;;6.73;4.20;;;;;;;-145.18;100.00;46640.88;5031660;28;20188;-66
2023/08/04 01:54:06;;;;;;;9.90;4.20;;;;;;;-145.18;100.00;46642.81;5031862;28;20033;-66
2023/08/04 01:56:32;;;;;;;7.77;3.67;;;;;;;-145.18;100.00;46636.94;5014071;28;20061;-66
2023/08/04 01:58:57;;;;;;;13.57;3.60;;;;;;;-145.18;100.00;46640.88;5031595;28;20036;-66
2023/08/04 02:01:22;;;;;;;8.53;3.73;;;;;;;-145.18;100.00;46640.88;5031380;28;20037;-66
2023/08/04 02:03:48;;;;;;;8.53;4.33;;;;;;;-145.18;100.00;46642.81;5031711;28;20079;-66
2023/08/04 02:06:13;;;;;;;8.30;3.97;;;;;;;-145.18;100.00;46638.91;5031983;28;20029;-65
2023/08/04 02:08:39;;;;;;;10.93;4.90;;;;;;;-145.18;100.00;46636.94;5032001;28;20494;-67
2023/08/04 02:11:04;;;;;;;7.77;4.07;;;;;;;-145.18;100.00;46636.94;5031934;28;20477;-65
2023/08/04 02:13:30;;;;;;;13.77;4.83;;;;;;;-145.18;100.00;46640.88;5031453;28;20486;-66
2023/08/04 02:15:55;;;;;;;5.87;3.77;;;;;;;-145.18;100.00;46640.88;5031948;28;20029;-66
2023/08/04 02:18:20;;;;;;;8.33;4.07;;;;;;;-145.18;100.00;46644.78;5031706;28;20497;-66
2023/08/04 02:20:46;;;;;;;12.77;5.13;;;;;;;-145.18;100.00;46635.00;5010374;28;20116;-66
2023/08/04 02:23:11;;;;;;;8.40;3.83;;;;;;;-145.18;100.00;46635.00;5030751;28;20040;-66
2023/08/04 02:25:36;;;;;;;8.03;4.10;;;;;;;-145.18;100.00;46638.91;5031659;28;20386;-66
2023/08/04 02:28:02;;;;;;;8.93;3.90;;;;;;;-145.18;100.00;46642.81;5031776;28;20025;-66
2023/08/04 02:30:28;;;;;;;8.83;4.43;;;;;;;-145.18;100.00;46644.78;5010508;28;20026;-66
2023/08/04 02:32:53;;;;;;;9.13;3.90;;;;;;;-145.18;100.00;46642.81;5027755;28;20034;-66
2023/08/04 02:35:19;;;;;;;6.50;4.17;;;;;;;-145.18;100.00;46642.81;5031558;28;20033;-66
2023/08/04 02:37:44;;;;;;;11.80;4.37;;;;;;;-145.18;100.00;46640.88;5031937;28;20393;-66
2023/08/04 02:40:10;;;;;;;9.80;4.00;;;;;;;-145.18;100.00;46640.88;5023723;28;20021;-66
2023/08/04 02:42:36;;;;;;;13.23;3.97;;;;;;;-145.18;100.00;46638.91;5010215;28;20030;-66
2023/08/04 02:45:01;;;;;;;13.03;4.17;;;;;;;-145.18;100.00;46640.88;5028626;28;20038;-66
2023/08/04 02:47:27;;;;;;;9.03;3.93;;;;;;;-145.18;100.00;46642.81;5010367;28;20036;-66
2023/08/04 02:49:53;;;;;;;10.43;4.40;;;;;;;-145.18;100.00;46642.81;5027341;28;20048;-66
2023/08/04 02:52:18;;;;;;;10.87;4.47;;;;;;;-145.18;100.00;46642.81;5031348;28;20029;-66
2023/08/04 02:54:43;;;;;;;13.80;5.03;;;;;;;-145.18;100.00;46638.91;5009626;28;20025;-66
2023/08/04 02:57:09;;;;;;;8.20;4.97;;;;;;;-145.18;100.00;46636.94;5018826;28;20094;-66
2023/08/04 02:59:34;;;;;;;11.43;4.67;;;;;;;-145.18;100.00;46644.78;5031573;28;20026;-66
2023/08/04 03:02:00;;;;;;;11.40;5.53;;;;;;;-145.18;100.00;46638.91;5013570;28;20037;-66
2023/08/04 03:04:25;;;;;;;12.83;4.90;;;;;;;-145.18;100.00;46642.81;5026949;28;20076;-66
2023/08/04 03:06:50;;;;;;;10.70;4.90;;;;;;;-145.18;100.00;46646.72;5031375;28;20068;-66
2023/08/04 03:09:16;;;;;;;11.97;4.83;;;;;;;-145.18;100.00;46642.81;5024732;28;20036;-66
2023/08/04 03:11:42;;;;;;;8.63;5.17;;;;;;;-145.18;100.00;46642.81;5030570;28;20116;-66
2023/08/04 03:14:08;;;;;;;10.97;5.13;;;;;;;-145.18;100.00;46640.88;5015971;28;20021;-66
2023/08/04 03:16:33;;;;;;;13.67;4.83;;;;;;;-145.18;100.00;46644.78;5034214;28;20032;-66
2023/08/04 03:18:58;;;;;;;9.33;5.03;;;;;;;-145.18;100.00;46640.88;5033266;28;20410;-66
2023/08/04 03:21:24;;;;;;;8.80;5.27;;;;;;;-145.18;100.00;46640.88;5033707;28;20052;-66
2023/08/04 03:23:49;;;;;;;9.40;5.20;;;;;;;-145.18;100.00;46642.81;5032908;28;20115;-66
2023/08/04 03:26:14;;;;;;;10.97;5.23;;;;;;;-145.18;100.00;46644.78;5033895;28;20147;-66
2023/08/04 03:28:40;;;;;;;9.07;4.60;;;;;;;-145.18;100.00;46638.91;5032625;28;20031;-66
2023/08/04 03:31:05;;;;;;;12.67;5.50;;;;;;;-145.18;100.00;46644.78;5034534;28;20045;-66
2023/08/04 03:33:31;;;;;;;9.40;4.77;;;;;;;-145.18;100.00;46636.94;5033066;28;20057;-66
2023/08/04 03:35:56;;;;;;;9.97;5.10;;;;;;;-145.18;100.00;46642.81;5034917;28;20037;-66
2023/08/04 03:38:22;;;;;;;9.53;5.53;;;;;;;-145.18;100.00;46640.88;5033699;28;20112;-66
2023/08/04 03:40:47;;;;;;;9.00;5.20;;;;;;;-145.18;100.00;46648.69;5033525;28;20104;-67
2023/08/04 03:43:13;;;;;;;11.67;6.03;;;;;;;-145.18;100.00;46642.81;5032060;28;20105;-66
2023/08/04 03:45:38;;;;;;;13.47;5.33;;;;;;;-145.18;100.00;46640.88;5030551;28;20028;-66
2023/08/04 03:48:04;;;;;;;14.97;6.23;;;;;;;-145.18;100.00;46638.91;5025873;28;20030;-67
2023/08/04 03:50:30;;;;;;;14.33;5.90;;;;;;;-145.18;100.00;46642.81;5033038;28;20030;-67
2023/08/04 03:52:55;;;;;;;9.93;5.10;;;;;;;-145.18;100.00;46640.88;5029938;28;20508;-66
2023/08/04 03:55:21;;;;;;;9.27;5.73;;;;;;;-145.18;100.00;46644.78;5033097;28;20033;-66
2023/08/04 03:57:46;;;;;;;13.43;4.90;;;;;;;-145.18;100.00;46642.81;5031219;28;20034;-66
2023/08/04 04:00:12;;;;;;;14.97;4.97;;;;;;;-145.18;100.00;46642.81;5032827;28;20035;-66
2023/08/04 04:02:38;;;;;;;8.47;4.73;;;;;;;-145.18;100.00;46642.81;5022393;28;20106;-66
2023/08/04 04:05:03;;;;;;;12.77;4.83;;;;;;;-145.18;100.00;46640.88;5031184;28;20053;-67
2023/08/04 04:07:29;;;;;;;11.73;5.60;;;;;;;-145.18;100.00;46648.69;5033823;28;20030;-66
2023/08/04 04:09:54;;;;;;;15.53;5.40;;;;;;;-145.18;100.00;46642.81;5034177;28;20563;-66
2023/08/04 04:12:19;;;;;;;11.03;5.07;;;;;;;-145.18;100.00;46642.81;5033226;28;20048;-66
2023/08/04 04:14:45;;;;;;;9.43;5.63;;;;;;;-145.18;100.00;46644.78;5015736;28;20116;-66
2023/08/04 04:17:10;;;;;;;9.70;5.20;;;;;;;-145.18;100.00;46638.91;5033227;28;20180;-67
2023/08/04 04:19:36;;;;;;;14.03;5.53;;;;;;;-145.18;100.00;46642.81;5033180;28;20402;-66
2023/08/04 04:22:01;;;;;;;9.00;4.73;;;;;;;-145.18;100.00;46644.78;5033103;28;20095;-66
2023/08/04 04:24:26;;;;;;;9.93;5.40;;;;;;;-145.18;100.00;46640.88;5014205;28;20025;-66
2023/08/04 04:26:52;;;;;;;11.07;5.10;;;;;;;-145.18;100.00;46642.81;5024351;28;20025;-68
2023/08/04 04:29:17;;;;;;;6.77;4.70;;;;;;;-145.18;100.00;46642.81;5027440;28;20096;-68
2023/08/04 04:31:43;;;;;;;8.63;5.40;;;;;;;-145.18;100.00;46642.81;4999020;28;20168;-68
2023/08/04 04:34:08;;;;;;;10.37;5.60;;;;;;;-145.18;100.00;46642.81;5028783;28;20036;-66
2023/08/04 04:36:33;;;;;;;13.37;5.03;;;;;;;-145.18;100.00;46638.91;5034084;28;20033;-66
2023/08/04 04:39:00;;;;;;;11.83;4.60;;;;;;;-145.18;100.00;46640.88;5033246;28;20105;-66
2023/08/04 04:41:27;;;;;;;11.87;4.80;;;;;;;-145.18;100.00;46640.88;5031281;28;20445;-66
2023/08/04 04:43:53;;;;;;;11.23;5.27;;;;;;;-145.18;100.00;46638.91;5025073;28;20598;-66
2023/08/04 04:46:18;;;;;;;10.10;4.70;;;;;;;-145.18;100.00;46642.81;5016784;28;20029;-66
2023/08/04 04:48:43;;;;;;;13.87;5.43;;;;;;;-145.18;100.00;46640.88;5036924;28;20441;-66
2023/08/04 04:51:09;;;;;;;8.37;4.83;;;;;;;-145.18;100.00;46642.81;5020114;28;20038;-66
2023/08/04 04:53:34;;;;;;;15.37;5.80;;;;;;;-145.18;100.00;46638.91;5027723;28;20033;-66
2023/08/04 04:56:00;;;;;;;10.23;5.00;;;;;;;-145.18;100.00;46642.81;5030256;28;20094;-66
2023/08/04 04:58:25;;;;;;;10.10;4.60;;;;;;;-145.18;100.00;46642.81;5030213;28;20026;-66
2023/08/04 05:00:50;;;;;;;7.07;4.63;;;;;;;-145.18;100.00;46636.94;5027102;28;20067;-66
2023/08/04 05:03:16;;;;;;;8.43;4.60;;;;;;;-145.18;100.00;46640.88;5034912;28;20374;-66
2023/08/04 05:05:43;;;;;;;13.10;5.63;;;;;;;-145.18;100.00;46644.78;5044609;28;20060;-66
2023/08/04 05:08:08;;;;;;;9.47;4.63;;;;;;;-145.18;100.00;46640.88;5034442;28;20024;-66
2023/08/04 05:10:34;;;;;;;11.03;5.13;;;;;;;-145.18;100.00;46642.81;5032206;28;20033;-66
2023/08/04 05:12:59;;;;;;;9.17;4.70;;;;;;;-145.18;100.00;46646.72;5041164;28;20029;-67
2023/08/04 05:15:24;;;;;;;10.10;5.27;;;;;;;-145.18;100.00;46642.81;5032271;28;20049;-67
2023/08/04 05:17:50;;;;;;;10.17;4.33;;;;;;;-145.18;100.00;46644.78;5020834;28;20368;-66
2023/08/04 05:20:15;;;;;;;7.43;4.80;;;;;;;-145.18;100.00;46636.94;5026460;28;20109;-66
2023/08/04 05:22:41;;;;;;;12.27;5.13;;;;;;;-145.18;100.00;46640.88;5024105;28;20038;-66
2023/08/04 05:25:07;;;;;;;8.70;4.40;;;;;;;-145.18;100.00;46638.91;5013250;28;20081;-67
2023/08/04 05:27:32;;;;;;;10.87;4.07;;;;;;;-145.18;100.00;46640.88;5022233;28;20083;-67
2023/08/04 05:29:58;;;;;;;6.60;3.73;;;;;;;-145.18;100.00;46642.81;5008267;28;20034;-66
2023/08/04 05:32:23;;;;;;;7.53;4.13;;;;;;;-145.18;100.00;46636.94;5024506;28;20026;-67
2023/08/04 05:34:48;;;;;;;7.80;4.10;;;;;;;-145.18;100.00;46640.88;5004508;28;20124;-66
2023/08/04 05:37:14;;;;;;;12.90;4.23;;;;;;;-145.18;100.00;46638.91;5028079;28;20092;-66
2023/08/04 05:39:39;;;;;;;12.47;3.90;;;;;;;-145.18;100.00;46635.00;5028362;28;20029;-66
2023/08/04 05:42:06;;;;;;;8.23;3.37;;;;;;;-145.18;100.00;46640.88;5023191;28;20032;-66
2023/08/04 05:44:31;;;;;;;10.00;4.07;;;;;;;-145.18;100.00;46638.91;5024401;28;20116;-66
2023/08/04 05:46:57;;;;;;;8.93;4.47;;;;;;;-145.18;100.00;46636.94;5031829;28;20444;-66
2023/08/04 05:49:22;;;;;;;10.07;3.70;;;;;;;-145.18;100.00;46640.88;5025927;28;20029;-66
2023/08/04 05:51:47;;;;;;;7.00;3.67;;;;;;;-145.18;100.00;46638.91;5032264;28;20025;-67
2023/08/04 05:54:13;;;;;;;6.90;3.53;;;;;;;-145.18;100.00;46638.91;5024451;28;20421;-66
2023/08/04 05:56:38;;;;;;;12.33;3.73;;;;;;;-145.18;100.00;46638.91;5031574;28;20030;-66
2023/08/04 05:59:03;;;;;;;8.17;3.83;;;;;;;-145.18;100.00;46638.91;5003347;28;20053;-66
2023/08/04 06:01:29;;;;;;;6.67;3.00;;;;;;;-145.18;100.00;46642.81;5027207;28;20033;-66
2023/08/04 06:03:54;;;;;;;6.63;3.03;;;;;;;-145.18;100.00;46644.78;5027226;28;20025;-66
2023/08/04 06:06:21;;;;;;;6.20;2.93;;;;;;;-145.18;100.00;46650.63;5026358;28;20034;-66
2023/08/04 06:08:46;;;;;;;3.67;2.40;;;;;;;-145.18;100.00;46648.69;5030377;28;20055;-66
2023/08/04 06:11:13;;;;;;;6.37;3.23;;;;;;;-145.18;100.00;46650.63;5027601;28;20529;-66
2023/08/04 06:13:39;;;;;;;3.00;2.10;;;;;;;-145.18;100.00;46650.63;5029244;28;20108;-66
2023/08/04 06:16:05;;;;;;;3.50;2.10;;;;;;;-145.18;100.00;46656.50;5027614;28;20033;-66
2023/08/04 06:18:30;;;;;;;5.13;2.57;;;;;;;-145.18;100.00;46656.50;5027123;28;20026;-66
2023/08/04 06:20:56;;;;;;;7.93;2.97;;;;;;;-145.18;100.00;46652.59;5030470;28;20030;-66
2023/08/04 06:23:21;;;;;;;6.80;2.77;;;;;;;-145.18;100.00;46650.63;5029932;28;20450;-66
2023/08/04 06:25:47;;;;;;;9.77;2.63;;;;;;;-145.18;100.00;46652.59;5027574;28;20029;-67
2023/08/04 06:28:12;;;;;;;7.63;3.03;;;;;;;-145.18;100.00;46650.63;5006010;28;20030;-66
2023/08/04 06:30:37;;;;;;;4.63;2.83;;;;;;;-145.18;100.00;46650.63;5027351;28;20044;-66
2023/08/04 06:33:03;;;;;;;9.37;2.87;;;;;;;-145.18;100.00;46648.69;5027984;28;20033;-66
2023/08/04 06:35:28;;;;;;;6.83;3.17;;;;;;;-145.18;100.00;46652.59;5022106;28;20084;-66
2023/08/04 06:37:54;;;;;;;6.90;2.93;;;;;;;-145.18;100.00;46652.59;5024929;28;20044;-67
2023/08/04 06:40:19;;;;;;;3.33;2.50;;;;;;;-145.18;100.00;46652.59;5029473;28;20034;-67
2023/08/04 06:42:44;;;;;;;7.17;3.07;;;;;;;-145.18;100.00;46652.59;5028782;28;20115;-66
2023/08/04 06:45:10;;;;;;;7.67;3.20;;;;;;;-145.18;100.00;46654.53;5017425;28;20037;-66
2023/08/04 06:47:36;;;;;;;5.90;3.13;;;;;;;-145.18;100.00;46652.59;5028471;28;20025;-66
2023/08/04 06:50:03;;;;;;;7.43;3.70;;;;;;;-145.18;100.00;46650.63;5035473;28;20033;-67
2023/08/04 06:52:30;;;;;;;6.87;3.20;;;;;;;-145.18;100.00;46654.53;5028997;28;20087;-66
2023/08/04 06:54:55;;;;;;;8.63;3.47;;;;;;;-145.18;100.00;46654.53;5031368;28;20378;-66
2023/08/04 06:57:21;;;;;;;9.80;3.40;;;;;;;-145.18;100.00;46652.59;5030938;28;20068;-66
2023/08/04 06:59:46;;;;;;;6.70;3.30;;;;;;;-145.18;100.00;46650.63;5030353;28;20032;-66
2023/08/04 07:02:11;;;;;;;4.60;2.97;;;;;;;-145.18;100.00;46658.44;5042951;28;20039;-66
2023/08/04 07:04:37;;;;;;;4.17;2.83;;;;;;;-145.18;100.00;46656.50;5028764;28;20156;-66
2023/08/04 07:07:02;;;;;;;6.33;3.10;;;;;;;-145.18;100.00;46650.63;5015119;28;20076;-66
2023/08/04 07:09:27;;;;;;;6.20;2.63;;;;;;;-145.18;100.00;46658.44;5014944;28;20198;-66
2023/08/04 07:11:53;;;;;;;8.87;3.27;;;;;;;-145.18;100.00;46654.53;5014799;28;20069;-66
2023/08/04 07:14:19;;;;;;;9.57;3.07;;;;;;;-145.18;100.00;46664.31;5013798;28;20034;-67
2023/08/04 07:16:47;;;;;;;8.47;3.00;;;;;;;-145.18;100.00;46658.44;5014989;28;20025;-67
2023/08/04 07:19:13;;;;;;;3.80;2.50;;;;;;;-145.18;100.00;46658.44;5014616;28;20026;-67
2023/08/04 07:21:39;;;;;;;4.03;2.40;;;;;;;-145.18;100.00;46658.44;5015113;28;20034;-67
2023/08/04 07:24:05;;;;;;;8.20;2.17;;;;;;;-145.18;100.00;46666.25;5015064;28;20021;-67
2023/08/04 07:26:32;;;;;;;5.33;2.23;;;;;;;-145.18;100.00;46664.31;5014925;28;20444;-67
2023/08/04 07:28:57;;;;;;;4.13;1.97;;;;;;;-145.18;100.00;46670.16;5014814;28;20025;-67
2023/08/04 07:31:23;;;;;;;5.07;2.00;;;;;;;-145.18;100.00;46672.13;5014331;28;20394;-67
2023/08/04 07:33:48;;;;;;;4.73;1.70;;;;;;;-145.18;100.00;46672.13;5013726;28;20037;-66
2023/08/04 07:36:13;;;;;;;5.27;2.30;;;;;;;-145.18;100.00;46676.03;5012515;28;20482;-66
2023/08/04 07:41:18;;;;;;;5.78;1.60;;;;;;;-145.18;100.00;46676.03;3315601;23;20059;-68
2023/08/04 07:43:44;;;;;;;5.27;2.00;;;;;;;-145.18;100.00;46676.03;4978664;28;20041;-68
2023/08/04 07:46:22;;;;;;;5.90;1.63;;;;;;;-145.18;100.00;46674.06;4980833;28;20022;-68
2023/08/04 07:48:49;;;;;;;3.63;1.90;;;;;;;-145.18;100.00;46677.97;4985045;28;20019;-67
2023/08/04 07:51:14;;;;;;;6.27;2.43;;;;;;;-145.18;100.00;46677.97;4987708;28;20466;-67
2023/08/04 07:53:40;;;;;;;3.23;2.23;;;;;;;-145.18;100.00;46672.13;4991477;28;20030;-67
2023/08/04 07:56:05;;;;;;;3.53;2.03;;;;;;;-145.18;100.00;46672.13;4990074;28;20079;-68
2023/08/04 07:58:31;;;;;;;4.10;1.83;;;;;;;-145.18;100.00;46674.06;4981230;28;20078;-67
2023/08/04 08:00:56;;;;;;;3.47;2.00;;;;;;;-145.18;100.00;46677.97;4994010;28;20058;-67
2023/08/04 08:03:22;;;;;;;5.67;2.27;;;;;;;-145.18;100.00;46676.03;4993758;28;20030;-67
2023/08/04 08:05:48;;;;;;;5.73;2.30;;;;;;;-145.18;100.00;46674.06;4994653;28;20018;-67
2023/08/04 08:08:13;;;;;;;3.97;2.13;;;;;;;-145.18;100.00;46676.03;4994103;28;20027;-68
2023/08/04 08:10:38;;;;;;;5.87;2.70;;;;;;;-145.18;100.00;46679.94;4994524;28;20038;-67
2023/08/04 08:13:04;;;;;;;4.70;1.80;;;;;;;-145.18;100.00;46676.03;4982422;28;20490;-68
2023/08/04 08:15:29;;;;;;;3.67;2.00;;;;;;;-145.18;100.00;46677.97;4981513;28;20038;-67
2023/08/04 08:17:54;;;;;;;4.77;1.93;;;;;;;-145.18;100.00;46676.03;4993451;28;20026;-67
2023/08/04 08:20:20;;;;;;;6.90;2.00;;;;;;;-145.18;100.00;46677.97;4994668;28;20504;-67
2023/08/04 08:22:45;;;;;;;3.90;1.90;;;;;;;-145.18;100.00;46679.94;4991605;28;20026;-67
2023/08/04 08:25:12;;;;;;;10.03;1.97;;;;;;;-145.18;100.00;46674.06;4991539;28;20038;-67
2023/08/04 08:27:38;;;;;;;4.80;2.47;;;;;;;-145.18;100.00;46674.06;4992923;28;20033;-67
2023/08/04 08:30:04;;;;;;;5.03;1.93;;;;;;;-145.18;100.00;46670.16;4994436;28;20393;-67
2023/08/04 08:32:29;;;;;;;7.43;2.20;;;;;;;-145.18;100.00;46668.22;4989809;28;20114;-67
2023/08/04 08:34:55;;;;;;;14.07;4.90;;;;;;;-145.18;100.00;46670.16;4994273;28;20466;-67
2023/08/04 08:37:20;;;;;;;8.60;2.83;;;;;;;-145.18;100.00;46668.22;4988516;28;20513;-67
2023/08/04 08:39:46;;;;;;;11.97;3.03;;;;;;;-145.18;100.00;46668.22;4992677;28;20030;-67
2023/08/04 08:42:11;;;;;;;11.07;2.13;;;;;;;-145.18;100.00;46666.25;4991314;28;20071;-67
2023/08/04 08:44:36;;;;;;;5.33;2.57;;;;;;;-145.18;100.00;46668.22;4992503;28;20052;-68
2023/08/04 08:47:02;;;;;;;8.10;2.47;;;;;;;-145.18;100.00;46666.25;4988621;28;20390;-68
2023/08/04 08:49:32;;;;;;;10.73;2.20;;;;;;;-145.18;100.00;46666.25;4981234;28;20026;-67
2023/08/04 08:51:58;;;;;;;5.57;2.20;;;;;;;-145.18;100.00;46668.22;4991704;28;20026;-67
2023/08/04 08:54:24;;;;;;;4.77;2.00;;;;;;;-145.18;100.00;46664.31;4987295;28;20075;-68
2023/08/04 08:56:50;;;;;;;5.40;2.27;;;;;;;-145.18;100.00;46668.22;4993808;28;20030;-68
2023/08/04 08:59:16;;;;;;;9.03;2.60;;;;;;;-145.18;100.00;46670.16;4988233;28;20026;-68
2023/08/04 09:01:41;;;;;;;9.10;2.90;;;;;;;-145.18;100.00;46670.16;4993100;28;20056;-68
2023/08/04 09:04:07;;;;;;;5.00;2.20;;;;;;;-145.18;100.00;46672.13;4986353;28;20038;-68
2023/08/04 09:06:32;;;;;;;13.03;2.50;;;;;;;-145.18;100.00;46676.03;4993506;28;20108;-68
2023/08/04 09:09:00;;;;;;;10.40;2.23;;;;;;;-145.18;100.00;46677.97;4990871;28;20118;-68
2023/08/04 09:11:28;;;;;;;5.73;3.13;;;;;;;-145.18;100.00;46676.03;4983826;28;20058;-67
2023/08/04 09:13:55;;;;;;;5.47;2.17;;;;;;;-145.18;100.00;46685.78;4993352;28;20039;-67
2023/08/04 09:16:31;;;;;;;3.43;1.60;;;;;;;-145.18;100.00;46687.75;4993059;28;20478;-68
2023/08/04 09:19:03;;;;;;;7.63;2.57;;;;;;;-145.18;100.00;46691.66;4992089;28;20058;-68
2023/08/04 09:21:29;;;;;;;5.43;1.93;;;;;;;-145.18;100.00;46689.69;4992866;28;20394;-68
2023/08/04 09:23:54;;;;;;;3.87;1.50;;;;;;;-145.18;100.00;46693.59;4981817;28;20035;-67
2023/08/04 09:26:20;;;;;;;9.13;2.10;;;;;;;-145.18;100.00;46689.69;4992791;28;20035;-68
2023/08/04 09:28:46;;;;;;;3.90;1.70;;;;;;;-145.18;100.00;46693.59;4983504;28;20110;-67
2023/08/04 09:31:14;;;;;;;4.57;1.00;;;;;;;-145.18;100.00;46693.59;4992701;28;20491;-68
2023/08/04 09:33:43;;;;;;;3.30;1.30;;;;;;;-145.18;100.00;46701.41;4984708;28;20105;-68
2023/08/04 09:36:10;;;;;;;2.47;1.93;;;;;;;-145.18;100.00;46693.59;4992947;28;20063;-68
2023/08/04 09:38:38;;;;;;;6.50;1.80;;;;;;;-145.18;100.00;46697.50;4985760;28;20038;-68
2023/08/04 09:41:09;;;;;;;20.77;4.70;;;;;;;-145.18;100.00;46693.59;4988420;28;20070;-68
2023/08/04 09:43:35;;;;;;;6.83;2.47;;;;;;;-145.18;100.00;46699.47;4986189;28;20506;-68
2023/08/04 09:46:05;;;;;;;6.43;1.60;;;;;;;-145.18;100.00;46705.31;4991429;28;20117;-68
2023/08/04 09:48:31;;;;;;;7.60;2.63;;;;;;;-145.18;100.00;46701.41;4984649;28;20046;-68
2023/08/04 09:51:07;;;;;;;10.43;2.53;;;;;;;-145.18;100.00;46693.59;4981786;28;20478;-68
2023/08/04 09:53:46;;;;;;;5.97;1.70;;;;;;;-145.18;100.00;46666.25;4991422;28;20057;-68
2023/08/04 09:56:17;;;;;;;6.07;1.63;;;;;;;-145.18;100.00;46668.22;4992014;28;20058;-68
2023/08/04 09:58:44;;;;;;;6.03;1.40;;;;;;;-145.18;100.00;46590.06;4979361;28;20026;-68
2023/08/04 10:01:10;;;;;;;2.90;1.40;;;;;;;-145.18;100.00;46586.16;4991156;28;20030;-68
2023/08/04 10:03:42;;;;;;;3.67;1.50;;;;;;;-145.18;100.00;46592.03;4991919;28;20026;-68
2023/08/04 10:06:09;;;;;;;4.67;1.30;;;;;;;-145.18;100.00;46570.53;4991205;28;20065;-68
2023/08/04 10:08:42;;;;;;;5.90;1.47;;;;;;;-145.18;100.00;46574.44;4983654;28;20034;-68
2023/08/04 10:11:08;;;;;;;4.10;1.20;;;;;;;-145.18;100.00;46588.13;4991358;28;20031;-68
2023/08/04 10:13:35;;;;;;;6.03;1.23;;;;;;;-145.18;100.00;46592.03;4991326;28;20030;-68
2023/08/04 10:16:06;;;;;;;8.87;2.30;;;;;;;-145.18;100.00;46617.41;4991275;28;20018;-68
2023/08/04 10:19:05;;;;;;;4.13;1.50;;;;;;;-145.18;100.00;46613.50;4983389;28;20482;-68
2023/08/04 10:21:41;;;;;;;3.20;1.33;;;;;;;-145.18;100.00;46672.13;4973782;28;20037;-68
2023/08/04 10:24:12;;;;;;;5.67;1.20;;;;;;;-145.18;100.00;46658.44;4983256;28;20030;-68
2023/08/04 10:26:46;;;;;;;5.17;1.70;;;;;;;-145.18;100.00;46635.00;4995242;28;20443;-68
2023/08/04 10:29:12;;;;;;;2.43;1.30;;;;;;;-145.18;100.00;46644.78;4987151;28;20065;-69
2023/08/04 10:31:46;;;;;;;3.17;1.33;;;;;;;-145.18;100.00;46582.25;4995346;28;20042;-68
2023/08/04 10:34:37;;;;;;;1.83;1.10;;;;;;;-145.18;100.00;46590.06;4987740;28;20450;-68
2023/08/04 10:37:11;;;;;;;3.63;1.80;;;;;;;-145.18;100.00;46580.31;4994803;28;20486;-68
2023/08/04 10:39:40;;;;;;;2.97;1.10;;;;;;;-145.18;100.00;46578.34;4989732;28;20069;-69
2023/08/04 10:42:11;;;;;;;2.63;1.30;;;;;;;-145.18;100.00;46578.34;4994702;28;20069;-68
2023/08/04 10:44:53;;;;;;;3.63;1.17;;;;;;;-145.18;100.00;46586.16;4986760;28;20062;-68
2023/08/04 10:47:32;;;;;;;2.43;1.20;;;;;;;-145.18;100.00;46593.97;4982583;28;20493;-68
2023/08/04 10:49:58;;;;;;;11.80;1.47;;;;;;;-145.18;100.00;46590.06;4994637;28;20577;-68
2023/08/04 10:52:25;;;;;;;3.40;1.27;;;;;;;-145.18;100.00;46590.06;4994992;28;20112;-68
2023/08/04 10:54:52;;;;;;;3.23;1.30;;;;;;;-145.18;100.00;46592.03;4993136;28;20501;-69
2023/08/04 10:57:21;;;;;;;2.43;1.20;;;;;;;-145.18;100.00;46595.94;4994730;28;20061;-69
2023/08/04 10:59:50;;;;;;;2.43;1.33;;;;;;;-145.18;100.00;46586.16;4994770;28;20037;-68
2023/08/04 11:02:20;;;;;;;5.07;1.10;;;;;;;-145.18;100.00;46584.22;4994865;28;20034;-68
2023/08/04 11:04:47;;;;;;;3.20;1.10;;;;;;;-145.18;100.00;46590.06;4983083;28;20034;-69
2023/08/04 11:07:14;;;;;;;4.10;1.40;;;;;;;-145.18;100.00;46597.88;4993327;28;20043;-68